createdAt,value
2023-05-21T00:03:54.570Z,100682.82
2023-05-21T00:07:57.779Z,100681.50
2023-05-21T00:12:01.116Z,100674.07
2023-05-21T00:16:04.558Z,100669.95
2023-05-21T00:20:09.111Z,100667.16
2023-05-21T00:24:12.373Z,100666.35
2023-05-21T00:28:15.701Z,100665.77
2023-05-21T00:32:20.745Z,100670.08
2023-05-21T00:36:25.428Z,100673.05
2023-05-21T00:40:31.204Z,100672.69
2023-05-21T00:44:35.467Z,100670.91
2023-05-21T00:48:40.013Z,100672.49
2023-05-21T00:52:45.702Z,100667.80
2023-05-21T00:56:50.054Z,100671.25
2023-05-21T01:00:56.021Z,100669.56
2023-05-21T01:05:00.481Z,100664.39
2023-05-21T01:09:06.523Z,100661.19
2023-05-21T01:13:09.867Z,100659.31
2023-05-21T01:17:13.944Z,100660.62
2023-05-21T01:21:18.607Z,100665.37
2023-05-21T01:25:23.405Z,100662.70
2023-05-21T01:29:26.664Z,100661.30
2023-05-21T01:33:45.743Z,100660.52
2023-05-21T01:37:55.880Z,100659.79
2023-05-21T01:42:03.710Z,100658.48
2023-05-21T01:46:11.011Z,100661.20
2023-05-21T01:50:16.088Z,100658.21
2023-05-21T01:54:19.407Z,100656.08
2023-05-21T01:58:23.493Z,100653.64
2023-05-21T02:02:26.846Z,100653.45
2023-05-21T02:06:31.866Z,100649.31
2023-05-21T02:10:36.109Z,100643.45
2023-05-21T02:14:39.392Z,100644.29
2023-05-21T02:18:46.592Z,100639.77
2023-05-21T02:22:50.872Z,100639.80
2023-05-21T02:26:54.192Z,100635.46
2023-05-21T02:30:57.474Z,100636.36
2023-05-21T02:35:01.538Z,100638.36
2023-05-21T02:39:04.723Z,100634.16
2023-05-21T02:43:07.813Z,100634.69
2023-05-21T02:47:13.039Z,100633.27
2023-05-21T02:51:16.182Z,100633.29
2023-05-21T02:55:19.211Z,100629.89
2023-05-21T02:59:22.350Z,100632.69
2023-05-21T03:03:25.745Z,100633.05
2023-05-21T03:07:29.039Z,100630.66
2023-05-21T03:11:32.420Z,100633.31
2023-05-21T03:15:36.130Z,100630.86
2023-05-21T03:19:42.097Z,100632.09
2023-05-21T03:23:45.677Z,100634.31
2023-05-21T03:27:49.116Z,100634.10
2023-05-21T03:31:56.728Z,100633.05
2023-05-21T03:36:00.438Z,100636.02
2023-05-21T03:40:04.746Z,100637.73
2023-05-21T03:44:09.673Z,100639.39
2023-05-21T03:48:12.860Z,100640.85
2023-05-21T03:52:16.100Z,100641.60
2023-05-21T03:56:19.487Z,100645.64
2023-05-21T04:00:22.741Z,100638.16
2023-05-21T04:04:26.521Z,100641.45
2023-05-21T04:08:29.905Z,100638.02
2023-05-21T04:12:33.398Z,100640.66
2023-05-21T04:16:38.895Z,100637.45
2023-05-21T04:20:42.242Z,100637.72
2023-05-21T04:24:46.610Z,100637.50
2023-05-21T04:28:50.599Z,100627.13
2023-05-21T04:32:55.046Z,100625.45
2023-05-21T04:36:58.678Z,100628.01
2023-05-21T04:41:03.980Z,100621.96
2023-05-21T04:45:07.616Z,100623.45
2023-05-21T04:49:10.859Z,100618.20
2023-05-21T04:53:14.127Z,100614.36
2023-05-21T04:57:18.567Z,100611.98
2023-05-21T05:01:27.065Z,100613.66
2023-05-21T05:05:30.660Z,100610.52
2023-05-21T05:09:34.705Z,100602.13
2023-05-21T05:13:37.932Z,100603.00
2023-05-21T05:17:41.374Z,100604.77
2023-05-21T05:21:44.556Z,100605.30
2023-05-21T05:25:47.890Z,100603.70
2023-05-21T05:29:51.139Z,100597.37
2023-05-21T05:33:54.492Z,100593.50
2023-05-21T05:37:57.773Z,100591.45
2023-05-21T05:42:01.710Z,100594.05
2023-05-21T05:46:05.151Z,100591.75
2023-05-21T05:50:08.784Z,100587.91
2023-05-21T05:54:11.949Z,100588.16
2023-05-21T05:58:15.285Z,100586.08
2023-05-21T06:02:18.664Z,100587.52
2023-05-21T06:06:22.112Z,100587.67
2023-05-21T06:10:25.722Z,100587.14
2023-05-21T06:14:28.974Z,100576.69
2023-05-21T06:18:32.434Z,100573.23
2023-05-21T06:22:37.056Z,100574.86
2023-05-21T06:26:40.367Z,100574.73
2023-05-21T06:30:43.510Z,100575.33
2023-05-21T06:34:47.046Z,100581.02
2023-05-21T06:38:50.328Z,100580.02
2023-05-21T06:42:53.726Z,100577.77
2023-05-21T06:46:56.983Z,100574.20
2023-05-21T06:51:00.447Z,100573.70
2023-05-21T06:55:04.295Z,100572.41
2023-05-21T06:59:07.663Z,100567.21
2023-05-21T07:03:11.256Z,100564.29
2023-05-21T07:07:14.638Z,100560.48
2023-05-21T07:11:17.818Z,100560.25
2023-05-21T07:15:21.119Z,100557.09
2023-05-21T07:19:24.458Z,100555.25
2023-05-21T07:23:27.655Z,100554.48
2023-05-21T07:27:30.904Z,100559.90
2023-05-21T07:31:34.453Z,100554.54
2023-05-21T07:35:37.933Z,100556.95
2023-05-21T07:39:41.407Z,100554.61
2023-05-21T07:43:44.748Z,100552.20
2023-05-21T07:47:48.037Z,100553.83
2023-05-21T07:51:51.335Z,100551.89
2023-05-21T07:55:54.712Z,100551.16
2023-05-21T07:59:58.677Z,100549.02
2023-05-21T08:04:05.902Z,100545.37
2023-05-21T08:08:09.458Z,100549.98
2023-05-21T08:12:15.907Z,100556.46
2023-05-21T08:16:19.384Z,100551.47
2023-05-21T08:20:22.593Z,100544.98
2023-05-21T08:24:26.534Z,100547.83
2023-05-21T08:28:30.901Z,100542.13
2023-05-21T08:32:52.287Z,100535.46
2023-05-21T08:37:17.118Z,100531.73
2023-05-21T08:41:23.814Z,100535.77
2023-05-21T08:45:38.283Z,100536.60
2023-05-21T08:49:45.287Z,100539.09
2023-05-21T08:53:53.076Z,100536.13
2023-05-21T08:58:04.108Z,100542.77
2023-05-21T09:02:14.025Z,100541.59
2023-05-21T09:06:24.717Z,100543.06
2023-05-21T09:15:01.859Z,100542.97
2023-05-21T09:19:13.044Z,100544.42
2023-05-21T09:23:18.481Z,100541.13
2023-05-21T09:27:22.794Z,100537.98
2023-05-21T09:31:27.422Z,100531.34
2023-05-21T09:35:31.576Z,100530.40
2023-05-21T09:39:35.996Z,100530.81
2023-05-21T09:43:43.160Z,100531.47
2023-05-21T09:47:48.499Z,100529.59
2023-05-21T09:56:32.328Z,100525.98
2023-05-21T10:00:35.664Z,100523.80
2023-05-21T10:04:39.370Z,100520.32
2023-05-21T10:08:48.351Z,100515.23
2023-05-21T10:13:23.954Z,100511.91
2023-05-21T10:17:28.436Z,100506.48
2023-05-21T10:21:33.608Z,100505.52
2023-05-21T10:25:36.354Z,100504.48
2023-05-21T10:29:41.863Z,100502.13
2023-05-21T10:33:58.612Z,100496.89
2023-05-21T10:38:04.324Z,100496.95
2023-05-21T10:42:34.259Z,100490.21
2023-05-21T10:46:47.467Z,100484.27
2023-05-21T10:50:56.105Z,100483.36
2023-05-21T10:54:58.900Z,100479.31
2023-05-21T10:59:51.824Z,100479.06
2023-05-21T11:03:55.989Z,100477.21
2023-05-21T11:08:02.520Z,100476.21
2023-05-21T11:12:05.788Z,100477.35
2023-05-21T11:16:16.765Z,100475.52
2023-05-21T11:20:22.951Z,100478.84
2023-05-21T11:24:28.315Z,100467.28
2023-05-21T11:28:34.328Z,100470.34
2023-05-21T11:33:14.169Z,100467.02
2023-05-21T11:37:17.627Z,100467.48
2023-05-21T11:41:22.281Z,100464.40
2023-05-21T11:45:54.783Z,100456.69
2023-05-21T11:50:00.816Z,100455.23
2023-05-21T11:54:54.196Z,100451.25
2023-05-21T11:58:56.952Z,100442.63
2023-05-21T12:03:02.305Z,100436.97
2023-05-21T12:07:11.013Z,100437.31
2023-05-21T12:11:13.956Z,100439.16
2023-05-21T12:15:18.972Z,100441.73
2023-05-21T12:19:22.135Z,100438.31
2023-05-21T12:23:27.179Z,100439.70
2023-05-21T12:27:31.225Z,100440.74
2023-05-21T12:31:48.003Z,100436.23
2023-05-21T12:35:51.716Z,100436.10
2023-05-21T12:39:57.965Z,100432.13
2023-05-21T12:44:01.222Z,100431.18
2023-05-21T12:48:04.299Z,100432.88
2023-05-21T12:52:57.722Z,100426.60
2023-05-21T12:57:28.321Z,100422.92
2023-05-21T13:02:02.105Z,100419.52
2023-05-21T13:06:09.261Z,100419.61
2023-05-21T13:10:13.149Z,100416.41
2023-05-21T13:15:15.230Z,100417.48
2023-05-21T13:19:18.227Z,100414.14
2023-05-21T13:23:21.250Z,100405.33
2023-05-21T13:27:24.004Z,100405.73
2023-05-21T13:31:27.134Z,100402.48
2023-05-21T13:35:31.116Z,100403.42
2023-05-21T13:39:58.921Z,100409.03
2023-05-21T13:44:01.942Z,100408.78
2023-05-21T13:48:05.104Z,100407.42
2023-05-21T13:52:08.800Z,100411.95
2023-05-21T13:56:11.653Z,100410.64
2023-05-21T14:00:15.846Z,100412.17
2023-05-21T14:04:19.885Z,100415.20
2023-05-21T14:08:30.091Z,100421.60
2023-05-21T14:12:33.437Z,100414.71
2023-05-21T14:16:36.464Z,100411.95
2023-05-21T14:20:39.517Z,100409.95
2023-05-21T14:24:42.487Z,100403.27
2023-05-21T14:28:46.377Z,100397.66
2023-05-21T14:32:49.287Z,100404.09
2023-05-21T14:36:52.045Z,100403.88
2023-05-21T14:40:55.128Z,100403.27
2023-05-21T14:49:01.502Z,100393.45
2023-05-21T14:53:06.181Z,100397.30
2023-05-21T14:57:18.035Z,100398.41
2023-05-21T15:01:21.066Z,100387.81
2023-05-21T15:05:24.915Z,100381.86
2023-05-21T15:09:27.686Z,100375.95
2023-05-21T15:13:30.538Z,100375.27
2023-05-21T15:17:34.787Z,100371.91
2023-05-21T15:21:37.892Z,100371.39
2023-05-21T15:25:40.711Z,100365.64
2023-05-21T15:29:45.672Z,100360.89
2023-05-21T15:33:49.085Z,100362.04
2023-05-21T15:37:52.048Z,100359.17
2023-05-21T15:41:54.958Z,100354.25
2023-05-21T15:51:05.028Z,100349.80
2023-05-21T16:11:17.968Z,100358.33
2023-05-21T16:36:53.661Z,100359.34
2023-05-21T16:40:56.772Z,100363.60
2023-05-21T16:44:59.963Z,100359.52
2023-05-21T16:49:02.993Z,100362.29
2023-05-21T16:53:07.678Z,100358.93
2023-05-21T16:57:10.594Z,100360.06
2023-05-21T17:01:14.786Z,100356.64
2023-05-21T17:05:17.705Z,100358.42
2023-05-21T17:09:22.838Z,100352.80
2023-05-21T17:13:25.573Z,100355.98
2023-05-21T17:17:28.454Z,100357.22
2023-05-21T17:21:31.745Z,100361.59
2023-05-21T17:25:40.230Z,100367.46
2023-05-21T17:29:43.887Z,100375.73
2023-05-21T17:33:47.117Z,100378.15
2023-05-21T17:37:50.447Z,100376.30
2023-05-21T17:41:53.650Z,100380.10
2023-05-21T17:45:56.827Z,100379.46
2023-05-21T17:50:00.192Z,100378.98
2023-05-21T17:54:04.244Z,100380.12
2023-05-21T17:58:07.627Z,100383.04
2023-05-21T18:02:11.521Z,100381.75
2023-05-21T18:06:14.911Z,100388.80
2023-05-21T18:10:18.194Z,100389.63
2023-05-21T18:14:21.436Z,100391.41
2023-05-21T18:18:25.053Z,100392.10
2023-05-21T18:22:28.201Z,100392.16
2023-05-21T18:26:32.212Z,100391.25
2023-05-21T18:30:35.839Z,100390.66
2023-05-21T18:34:39.405Z,100391.52
2023-05-21T18:38:42.650Z,100388.32
2023-05-21T18:42:46.058Z,100391.08
2023-05-21T18:46:49.356Z,100389.44
2023-05-21T18:50:53.049Z,100389.54
2023-05-21T18:54:56.281Z,100389.86
2023-05-21T18:59:03.946Z,100395.55
2023-05-21T19:03:07.465Z,100396.38
2023-05-21T19:07:11.706Z,100399.58
2023-05-21T19:11:18.934Z,100407.15
2023-05-21T19:15:23.262Z,100404.25
2023-05-21T19:19:26.898Z,100403.42
2023-05-21T19:23:33.795Z,100411.91
2023-05-21T19:27:45.212Z,100415.00
2023-05-21T19:31:49.200Z,100420.79
2023-05-21T19:35:53.012Z,100422.19
2023-05-21T19:39:56.873Z,100418.13
2023-05-21T19:44:00.695Z,100415.66
2023-05-21T19:48:04.720Z,100412.33
2023-05-21T19:52:23.416Z,100411.24
2023-05-21T19:56:35.706Z,100413.77
2023-05-21T20:00:40.394Z,100411.15
2023-05-21T20:04:44.550Z,100411.76
2023-05-21T20:08:52.006Z,100406.05
2023-05-21T20:12:58.270Z,100400.41
2023-05-21T20:17:02.195Z,100400.78
2023-05-21T20:21:06.700Z,100398.90
2023-05-21T20:25:10.769Z,100395.94
2023-05-21T20:29:14.060Z,100394.77
2023-05-21T20:33:17.355Z,100390.05
2023-05-21T20:37:21.907Z,100394.92
2023-05-21T20:41:25.409Z,100400.16
2023-05-21T20:45:29.843Z,100398.96
2023-05-21T20:49:35.836Z,100399.48
2023-05-21T20:53:39.246Z,100394.98
2023-05-21T20:57:42.469Z,100390.70
2023-05-21T21:01:45.791Z,100394.24
2023-05-21T21:05:49.307Z,100398.17
2023-05-21T21:09:53.434Z,100403.27
2023-05-21T21:13:56.832Z,100404.20
2023-05-21T21:18:00.013Z,100404.42
2023-05-21T21:22:03.450Z,100406.98
2023-05-21T21:26:06.785Z,100411.33
2023-05-21T21:30:10.440Z,100414.19
2023-05-21T21:34:14.502Z,100414.28
2023-05-21T21:38:17.812Z,100415.81
2023-05-21T21:42:21.037Z,100414.18
2023-05-21T21:46:25.734Z,100415.76
2023-05-21T21:50:29.044Z,100412.91
2023-05-21T21:54:32.198Z,100416.27
2023-05-21T21:58:35.596Z,100419.40
2023-05-21T22:02:40.364Z,100419.50
2023-05-21T22:06:45.473Z,100425.40
2023-05-21T22:10:48.781Z,100422.15
2023-05-21T22:14:52.234Z,100419.19
2023-05-21T22:18:55.722Z,100417.84
2023-05-21T22:22:59.978Z,100421.02
2023-05-21T22:27:03.636Z,100420.32
2023-05-21T22:31:09.477Z,100421.19
2023-05-21T22:35:12.785Z,100420.50
2023-05-21T22:39:15.815Z,100419.77
2023-05-21T22:43:19.094Z,100418.24
2023-05-21T22:47:23.979Z,100415.81
2023-05-21T22:51:29.010Z,100418.06
2023-05-21T22:55:32.134Z,100418.35
2023-05-21T22:59:35.322Z,100420.13
2023-05-21T23:03:38.758Z,100416.23
2023-05-21T23:07:43.018Z,100418.42
2023-05-21T23:11:46.275Z,100414.64
2023-05-21T23:15:50.828Z,100412.89
2023-05-21T23:19:53.981Z,100411.47
2023-05-21T23:23:57.242Z,100408.78
2023-05-21T23:28:00.402Z,100405.16
2023-05-21T23:32:05.405Z,100400.02
2023-05-21T23:36:09.061Z,100401.53
2023-05-21T23:59:03.285Z,100416.84
